Coonawarra, South Australia

10:43 AM ACST on September 05, 2015 (GMT +0930)
Naracoorte | | Change Station
CLOSE
Current Station
Personal Weather Station
Location: Naracoorte, SOUTH AUSTRALIA
Elevation: 165 ft
Nearby Weather Stations

Elev 165 ft 36.96 °S, 140.74 °E | Updated 11 minutes ago

Overcast
Overcast
56.9 °F
Feels Like 56.9 °F
N
3.0
Wind Variable Wind from WSW
Gusts 6.0 mph

Today
High -- | Low -- °F
--% Chance of Precip.
Yesterday
High -- | Low -- °F
Precip. -- in
6:23 AM 5:48 PM
Waning Gibbous, 54% visible
Pressure 30.27 in
Visibility 6.2 miles
Clouds Overcast 3000 ft
Dew Point 41 °F
Humidity 55%
Rainfall 0.00 in
Snow Depth Not available.
UV 4.0 out of 12
Pollen Not available.
Air Quality Not available.
Flu Activity Not available.
METAR YMTG 050000Z AUTO 35007KT 9999 // OVC030 11/06 Q1025
Pressure 30.27 in
Visibility 6.2 miles
Clouds Overcast 3000 ft
Dew Point 41 °F
Humidity 55%
Rainfall 0.00 in
Snow Depth Not available.
UV 4.0 out of 12
Pollen Not available.
Air Quality Not available.
Flu Activity Not available.
METAR YMTG 050000Z AUTO 35007KT 9999 // OVC030 11/06 Q1025

10-Day Weather Forecast

×

Almanac

Astronomy

Sep. 05, 2015 Rise Set
Actual Time
Civil Twilight
Nautical Twilight
Astronomical Twilight
Moon
Length of Visible Light
Length of Day
Tomorrow will be .
, % of the Moon is Illuminated

Today's Extremes

Country Highs Country Lows

Community

WunderPhotos

Upload Photos

1,852,372 photos uploaded!

WunderBlogs® & News

Nearby

Air Quality

  Air Quality AQ Index Pollutant
Not available.

Snow Depth

Station Depth Elevation

Earthquake Activity

City Distance Mag. Time & Date
Minimum magnitude displayed is 2.5.

Coastal Water Temperatures

Place Temperature

Stations

Nearby Weather Stations

Station Location Temp. Windchill Dew Point Humidity Wind Precip. Elev Updated Type